sensor_id;sensor_type;location;lat;lon;timestamp;P1;durP1;ratioP1;P2;durP2;ratioP2
17259;SDS011;8746;49.230;9.220;2023-06-22T00:01:24;6.80;;;5.07;;
17259;SDS011;8746;49.230;9.220;2023-06-22T00:03:50;7.55;;;5.47;;
17259;SDS011;8746;49.230;9.220;2023-06-22T00:06:15;7.38;;;5.40;;
17259;SDS011;8746;49.230;9.220;2023-06-22T00:08:40;8.38;;;5.85;;
17259;SDS011;8746;49.230;9.220;2023-06-22T00:11:06;7.53;;;5.55;;
17259;SDS011;8746;49.230;9.220;2023-06-22T00:13:31;8.35;;;5.47;;
17259;SDS011;8746;49.230;9.220;2023-06-22T00:15:57;5.53;;;5.03;;
17259;SDS011;8746;49.230;9.220;2023-06-22T00:18:22;8.27;;;5.50;;
17259;SDS011;8746;49.230;9.220;2023-06-22T00:20:52;8.50;;;5.88;;
17259;SDS011;8746;49.230;9.220;2023-06-22T00:23:22;5.78;;;5.18;;
17259;SDS011;8746;49.230;9.220;2023-06-22T00:25:48;7.60;;;5.82;;
17259;SDS011;8746;49.230;9.220;2023-06-22T00:28:14;6.60;;;6.00;;
17259;SDS011;8746;49.230;9.220;2023-06-22T00:30:40;7.45;;;5.40;;
17259;SDS011;8746;49.230;9.220;2023-06-22T00:33:05;6.88;;;5.85;;
17259;SDS011;8746;49.230;9.220;2023-06-22T00:35:32;6.18;;;5.45;;
17259;SDS011;8746;49.230;9.220;2023-06-22T00:37:58;5.88;;;5.38;;
17259;SDS011;8746;49.230;9.220;2023-06-22T00:40:30;8.63;;;5.70;;
17259;SDS011;8746;49.230;9.220;2023-06-22T00:42:56;6.75;;;5.65;;
17259;SDS011;8746;49.230;9.220;2023-06-22T00:45:24;6.85;;;5.22;;
17259;SDS011;8746;49.230;9.220;2023-06-22T00:47:54;10.15;;;5.63;;
17259;SDS011;8746;49.230;9.220;2023-06-22T00:50:24;6.50;;;5.53;;
17259;SDS011;8746;49.230;9.220;2023-06-22T00:52:52;7.30;;;5.97;;
17259;SDS011;8746;49.230;9.220;2023-06-22T00:55:19;6.28;;;5.68;;
17259;SDS011;8746;49.230;9.220;2023-06-22T00:57:46;7.35;;;5.97;;
17259;SDS011;8746;49.230;9.220;2023-06-22T01:00:12;7.45;;;5.63;;
17259;SDS011;8746;49.230;9.220;2023-06-22T01:02:40;5.95;;;5.45;;
17259;SDS011;8746;49.230;9.220;2023-06-22T01:05:06;8.63;;;6.45;;
17259;SDS011;8746;49.230;9.220;2023-06-22T01:07:35;7.65;;;5.97;;
17259;SDS011;8746;49.230;9.220;2023-06-22T01:10:21;7.28;;;6.55;;
17259;SDS011;8746;49.230;9.220;2023-06-22T01:12:53;7.10;;;5.80;;
17259;SDS011;8746;49.230;9.220;2023-06-22T01:16:07;8.23;;;6.07;;
17259;SDS011;8746;49.230;9.220;2023-06-22T01:18:28;8.90;;;6.28;;
17259;SDS011;8746;49.230;9.220;2023-06-22T01:20:56;7.35;;;5.93;;
17259;SDS011;8746;49.230;9.220;2023-06-22T01:29:04;9.32;;;7.25;;
17259;SDS011;8746;49.230;9.220;2023-06-22T01:31:30;7.43;;;6.73;;
17259;SDS011;8746;49.230;9.220;2023-06-22T01:33:58;7.40;;;6.80;;
17259;SDS011;8746;49.230;9.220;2023-06-22T01:36:25;7.80;;;7.00;;
17259;SDS011;8746;49.230;9.220;2023-06-22T01:38:52;8.48;;;7.00;;
17259;SDS011;8746;49.230;9.220;2023-06-22T01:41:18;9.05;;;7.35;;
17259;SDS011;8746;49.230;9.220;2023-06-22T01:43:44;8.57;;;7.20;;
17259;SDS011;8746;49.230;9.220;2023-06-22T01:46:10;8.98;;;7.20;;
17259;SDS011;8746;49.230;9.220;2023-06-22T01:48:37;7.63;;;6.93;;
17259;SDS011;8746;49.230;9.220;2023-06-22T01:51:04;7.77;;;6.87;;
17259;SDS011;8746;49.230;9.220;2023-06-22T01:53:29;7.45;;;6.68;;
17259;SDS011;8746;49.230;9.220;2023-06-22T01:55:55;8.17;;;7.20;;
17259;SDS011;8746;49.230;9.220;2023-06-22T01:58:23;11.47;;;6.53;;
17259;SDS011;8746;49.230;9.220;2023-06-22T02:01:06;7.60;;;6.90;;
17259;SDS011;8746;49.230;9.220;2023-06-22T02:03:37;12.13;;;7.40;;
17259;SDS011;8746;49.230;9.220;2023-06-22T02:06:08;8.90;;;6.90;;
17259;SDS011;8746;49.230;9.220;2023-06-22T02:08:51;9.63;;;7.50;;
17259;SDS011;8746;49.230;9.220;2023-06-22T02:11:20;7.97;;;6.93;;
17259;SDS011;8746;49.230;9.220;2023-06-22T02:13:46;9.43;;;7.33;;
17259;SDS011;8746;49.230;9.220;2023-06-22T02:16:13;9.70;;;7.37;;
17259;SDS011;8746;49.230;9.220;2023-06-22T02:18:47;11.07;;;7.83;;
17259;SDS011;8746;49.230;9.220;2023-06-22T02:21:15;8.57;;;7.73;;
17259;SDS011;8746;49.230;9.220;2023-06-22T02:23:41;8.50;;;7.43;;
17259;SDS011;8746;49.230;9.220;2023-06-22T02:26:06;10.00;;;7.30;;
17259;SDS011;8746;49.230;9.220;2023-06-22T02:28:32;8.98;;;7.57;;
17259;SDS011;8746;49.230;9.220;2023-06-22T02:30:57;9.37;;;7.83;;
17259;SDS011;8746;49.230;9.220;2023-06-22T02:33:22;8.27;;;7.27;;
17259;SDS011;8746;49.230;9.220;2023-06-22T02:35:47;7.93;;;7.20;;
17259;SDS011;8746;49.230;9.220;2023-06-22T02:38:14;8.70;;;7.50;;
17259;SDS011;8746;49.230;9.220;2023-06-22T02:40:40;8.80;;;7.72;;
17259;SDS011;8746;49.230;9.220;2023-06-22T02:43:05;9.50;;;7.47;;
17259;SDS011;8746;49.230;9.220;2023-06-22T02:45:30;10.00;;;7.72;;
17259;SDS011;8746;49.230;9.220;2023-06-22T02:47:56;9.47;;;7.27;;
17259;SDS011;8746;49.230;9.220;2023-06-22T02:50:21;8.83;;;7.53;;
17259;SDS011;8746;49.230;9.220;2023-06-22T02:52:47;8.23;;;7.40;;
17259;SDS011;8746;49.230;9.220;2023-06-22T02:55:12;9.63;;;7.50;;
17259;SDS011;8746;49.230;9.220;2023-06-22T02:57:37;8.87;;;7.97;;
17259;SDS011;8746;49.230;9.220;2023-06-22T03:00:09;12.87;;;8.03;;
17259;SDS011;8746;49.230;9.220;2023-06-22T03:02:42;9.80;;;7.63;;
17259;SDS011;8746;49.230;9.220;2023-06-22T03:05:11;11.83;;;8.50;;
17259;SDS011;8746;49.230;9.220;2023-06-22T03:07:39;9.87;;;8.00;;
17259;SDS011;8746;49.230;9.220;2023-06-22T03:10:05;10.90;;;8.10;;
17259;SDS011;8746;49.230;9.220;2023-06-22T03:12:31;12.43;;;7.80;;
17259;SDS011;8746;49.230;9.220;2023-06-22T03:14:56;10.87;;;7.87;;
17259;SDS011;8746;49.230;9.220;2023-06-22T03:17:23;10.63;;;8.40;;
17259;SDS011;8746;49.230;9.220;2023-06-22T03:19:48;10.15;;;7.85;;
17259;SDS011;8746;49.230;9.220;2023-06-22T03:22:16;10.23;;;8.47;;
17259;SDS011;8746;49.230;9.220;2023-06-22T03:24:41;9.93;;;8.43;;
17259;SDS011;8746;49.230;9.220;2023-06-22T03:27:06;10.50;;;8.13;;
17259;SDS011;8746;49.230;9.220;2023-06-22T03:29:31;11.93;;;8.30;;
17259;SDS011;8746;49.230;9.220;2023-06-22T03:31:57;10.60;;;8.07;;
17259;SDS011;8746;49.230;9.220;2023-06-22T03:34:22;9.23;;;8.40;;
17259;SDS011;8746;49.230;9.220;2023-06-22T03:36:48;9.20;;;7.93;;
17259;SDS011;8746;49.230;9.220;2023-06-22T03:39:13;13.30;;;8.98;;
17259;SDS011;8746;49.230;9.220;2023-06-22T03:41:38;8.87;;;7.80;;
17259;SDS011;8746;49.230;9.220;2023-06-22T03:44:04;11.57;;;8.63;;
17259;SDS011;8746;49.230;9.220;2023-06-22T03:46:29;8.97;;;8.07;;
17259;SDS011;8746;49.230;9.220;2023-06-22T03:48:54;12.40;;;8.13;;
17259;SDS011;8746;49.230;9.220;2023-06-22T03:51:20;12.30;;;8.23;;
17259;SDS011;8746;49.230;9.220;2023-06-22T03:53:45;9.33;;;8.27;;
17259;SDS011;8746;49.230;9.220;2023-06-22T03:56:10;11.20;;;8.27;;
17259;SDS011;8746;49.230;9.220;2023-06-22T03:58:36;11.27;;;8.13;;
17259;SDS011;8746;49.230;9.220;2023-06-22T04:01:07;8.40;;;7.45;;
17259;SDS011;8746;49.230;9.220;2023-06-22T04:03:36;8.15;;;7.35;;
17259;SDS011;8746;49.230;9.220;2023-06-22T04:06:02;12.07;;;8.13;;
17259;SDS011;8746;49.230;9.220;2023-06-22T04:08:27;11.00;;;9.38;;
17259;SDS011;8746;49.230;9.220;2023-06-22T04:10:52;9.60;;;7.93;;
17259;SDS011;8746;49.230;9.220;2023-06-22T04:13:18;10.93;;;8.50;;
17259;SDS011;8746;49.230;9.220;2023-06-22T04:15:44;8.90;;;8.10;;
17259;SDS011;8746;49.230;9.220;2023-06-22T04:18:09;9.53;;;8.57;;
17259;SDS011;8746;49.230;9.220;2023-06-22T04:20:35;11.63;;;8.23;;
17259;SDS011;8746;49.230;9.220;2023-06-22T04:23:00;10.93;;;8.60;;
17259;SDS011;8746;49.230;9.220;2023-06-22T04:25:25;9.30;;;8.40;;
17259;SDS011;8746;49.230;9.220;2023-06-22T04:27:51;10.98;;;9.25;;
17259;SDS011;8746;49.230;9.220;2023-06-22T04:30:16;10.02;;;8.88;;
17259;SDS011;8746;49.230;9.220;2023-06-22T04:32:42;12.15;;;8.90;;
17259;SDS011;8746;49.230;9.220;2023-06-22T04:35:08;11.85;;;9.40;;
17259;SDS011;8746;49.230;9.220;2023-06-22T04:37:34;13.55;;;8.93;;
17259;SDS011;8746;49.230;9.220;2023-06-22T04:39:59;10.27;;;8.55;;
17259;SDS011;8746;49.230;9.220;2023-06-22T04:42:27;9.50;;;8.50;;
17259;SDS011;8746;49.230;9.220;2023-06-22T04:44:53;13.68;;;8.95;;
17259;SDS011;8746;49.230;9.220;2023-06-22T04:47:18;9.80;;;8.88;;
17259;SDS011;8746;49.230;9.220;2023-06-22T04:49:44;12.88;;;8.55;;
17259;SDS011;8746;49.230;9.220;2023-06-22T04:52:10;10.90;;;8.55;;
17259;SDS011;8746;49.230;9.220;2023-06-22T04:54:37;10.23;;;8.07;;
17259;SDS011;8746;49.230;9.220;2023-06-22T04:57:07;9.95;;;9.00;;
17259;SDS011;8746;49.230;9.220;2023-06-22T04:59:36;11.23;;;8.95;;
17259;SDS011;8746;49.230;9.220;2023-06-22T05:02:04;10.82;;;9.00;;
17259;SDS011;8746;49.230;9.220;2023-06-22T05:04:30;11.65;;;8.32;;
17259;SDS011;8746;49.230;9.220;2023-06-22T05:06:57;11.10;;;8.80;;
17259;SDS011;8746;49.230;9.220;2023-06-22T05:09:24;14.27;;;9.07;;
17259;SDS011;8746;49.230;9.220;2023-06-22T05:11:52;10.00;;;8.95;;
17259;SDS011;8746;49.230;9.220;2023-06-22T05:14:18;9.68;;;8.25;;
17259;SDS011;8746;49.230;9.220;2023-06-22T05:16:44;10.52;;;8.68;;
17259;SDS011;8746;49.230;9.220;2023-06-22T05:19:10;9.55;;;7.57;;
17259;SDS011;8746;49.230;9.220;2023-06-22T05:21:35;8.98;;;7.82;;
17259;SDS011;8746;49.230;9.220;2023-06-22T05:24:01;9.57;;;7.60;;
17259;SDS011;8746;49.230;9.220;2023-06-22T05:26:28;9.60;;;8.63;;
17259;SDS011;8746;49.230;9.220;2023-06-22T05:28:54;8.93;;;7.75;;
17259;SDS011;8746;49.230;9.220;2023-06-22T05:31:19;11.65;;;7.93;;
17259;SDS011;8746;49.230;9.220;2023-06-22T05:33:45;9.73;;;7.95;;
17259;SDS011;8746;49.230;9.220;2023-06-22T05:36:12;11.25;;;8.18;;
17259;SDS011;8746;49.230;9.220;2023-06-22T05:38:38;9.40;;;7.78;;
17259;SDS011;8746;49.230;9.220;2023-06-22T05:41:03;9.23;;;7.55;;
17259;SDS011;8746;49.230;9.220;2023-06-22T05:43:29;9.65;;;7.70;;
17259;SDS011;8746;49.230;9.220;2023-06-22T05:45:55;11.63;;;7.72;;
17259;SDS011;8746;49.230;9.220;2023-06-22T05:48:20;9.25;;;8.07;;
17259;SDS011;8746;49.230;9.220;2023-06-22T05:50:45;9.27;;;8.07;;
17259;SDS011;8746;49.230;9.220;2023-06-22T05:53:11;8.52;;;7.80;;
17259;SDS011;8746;49.230;9.220;2023-06-22T05:55:36;10.98;;;7.45;;
17259;SDS011;8746;49.230;9.220;2023-06-22T05:58:01;9.30;;;7.78;;
17259;SDS011;8746;49.230;9.220;2023-06-22T06:00:28;8.65;;;7.80;;
17259;SDS011;8746;49.230;9.220;2023-06-22T06:02:53;8.82;;;7.18;;
17259;SDS011;8746;49.230;9.220;2023-06-22T06:05:19;9.43;;;7.38;;
17259;SDS011;8746;49.230;9.220;2023-06-22T06:07:44;9.65;;;7.65;;
17259;SDS011;8746;49.230;9.220;2023-06-22T06:10:10;11.15;;;7.13;;
17259;SDS011;8746;49.230;9.220;2023-06-22T06:12:36;8.52;;;6.88;;
17259;SDS011;8746;49.230;9.220;2023-06-22T06:15:02;8.50;;;6.90;;
17259;SDS011;8746;49.230;9.220;2023-06-22T06:17:28;7.57;;;6.75;;
17259;SDS011;8746;49.230;9.220;2023-06-22T06:19:53;10.32;;;7.30;;
17259;SDS011;8746;49.230;9.220;2023-06-22T06:22:18;8.23;;;6.85;;
17259;SDS011;8746;49.230;9.220;2023-06-22T06:24:45;9.85;;;7.18;;
17259;SDS011;8746;49.230;9.220;2023-06-22T06:27:11;8.70;;;6.65;;
17259;SDS011;8746;49.230;9.220;2023-06-22T06:29:36;10.10;;;6.55;;
17259;SDS011;8746;49.230;9.220;2023-06-22T06:32:01;6.82;;;6.22;;
17259;SDS011;8746;49.230;9.220;2023-06-22T06:34:27;10.52;;;6.53;;
17259;SDS011;8746;49.230;9.220;2023-06-22T06:36:52;7.65;;;6.45;;
17259;SDS011;8746;49.230;9.220;2023-06-22T06:39:17;7.05;;;6.30;;
17259;SDS011;8746;49.230;9.220;2023-06-22T06:41:43;9.88;;;5.97;;
17259;SDS011;8746;49.230;9.220;2023-06-22T06:44:08;7.32;;;6.63;;
17259;SDS011;8746;49.230;9.220;2023-06-22T06:46:33;9.15;;;6.40;;
17259;SDS011;8746;49.230;9.220;2023-06-22T06:48:59;7.43;;;6.68;;
17259;SDS011;8746;49.230;9.220;2023-06-22T06:51:24;6.60;;;6.00;;
17259;SDS011;8746;49.230;9.220;2023-06-22T06:53:49;7.28;;;5.82;;
17259;SDS011;8746;49.230;9.220;2023-06-22T06:56:15;6.55;;;5.93;;
17259;SDS011;8746;49.230;9.220;2023-06-22T06:58:41;10.15;;;6.10;;
17259;SDS011;8746;49.230;9.220;2023-06-22T07:01:07;9.70;;;5.82;;
17259;SDS011;8746;49.230;9.220;2023-06-22T07:03:33;6.57;;;5.75;;
17259;SDS011;8746;49.230;9.220;2023-06-22T07:05:58;7.28;;;5.70;;
17259;SDS011;8746;49.230;9.220;2023-06-22T07:08:24;6.60;;;5.55;;
17259;SDS011;8746;49.230;9.220;2023-06-22T07:10:49;7.97;;;6.22;;
17259;SDS011;8746;49.230;9.220;2023-06-22T07:13:14;6.32;;;5.72;;
17259;SDS011;8746;49.230;9.220;2023-06-22T07:15:40;5.75;;;5.25;;
17259;SDS011;8746;49.230;9.220;2023-06-22T07:18:05;8.27;;;5.78;;
17259;SDS011;8746;49.230;9.220;2023-06-22T07:20:30;5.80;;;5.25;;
17259;SDS011;8746;49.230;9.220;2023-06-22T07:22:56;5.68;;;5.18;;
17259;SDS011;8746;49.230;9.220;2023-06-22T07:25:21;5.35;;;4.85;;
17259;SDS011;8746;49.230;9.220;2023-06-22T07:27:56;6.22;;;5.40;;
17259;SDS011;8746;49.230;9.220;2023-06-22T07:30:22;6.40;;;4.80;;
17259;SDS011;8746;49.230;9.220;2023-06-22T07:32:48;6.40;;;5.32;;
17259;SDS011;8746;49.230;9.220;2023-06-22T07:35:13;6.18;;;5.13;;
17259;SDS011;8746;49.230;9.220;2023-06-22T07:37:41;7.63;;;4.95;;
17259;SDS011;8746;49.230;9.220;2023-06-22T07:40:06;9.00;;;4.60;;
17259;SDS011;8746;49.230;9.220;2023-06-22T07:42:32;6.95;;;5.32;;
17259;SDS011;8746;49.230;9.220;2023-06-22T07:44:58;4.88;;;4.57;;
17259;SDS011;8746;49.230;9.220;2023-06-22T07:47:23;7.07;;;4.95;;
17259;SDS011;8746;49.230;9.220;2023-06-22T07:49:53;5.43;;;4.90;;
17259;SDS011;8746;49.230;9.220;2023-06-22T07:52:19;6.00;;;5.22;;
17259;SDS011;8746;49.230;9.220;2023-06-22T07:54:46;5.47;;;4.97;;
17259;SDS011;8746;49.230;9.220;2023-06-22T07:57:11;5.88;;;5.28;;
17259;SDS011;8746;49.230;9.220;2023-06-22T07:59:36;9.88;;;5.18;;
17259;SDS011;8746;49.230;9.220;2023-06-22T08:02:02;11.43;;;5.53;;
17259;SDS011;8746;49.230;9.220;2023-06-22T08:04:28;8.05;;;5.60;;
17259;SDS011;8746;49.230;9.220;2023-06-22T08:06:55;7.90;;;5.55;;
17259;SDS011;8746;49.230;9.220;2023-06-22T08:09:21;8.23;;;5.47;;
17259;SDS011;8746;49.230;9.220;2023-06-22T08:11:46;6.00;;;4.53;;
17259;SDS011;8746;49.230;9.220;2023-06-22T08:14:12;5.68;;;5.05;;
17259;SDS011;8746;49.230;9.220;2023-06-22T08:16:38;5.10;;;4.30;;
17259;SDS011;8746;49.230;9.220;2023-06-22T08:19:03;6.47;;;4.22;;
17259;SDS011;8746;49.230;9.220;2023-06-22T08:21:28;8.73;;;4.68;;
17259;SDS011;8746;49.230;9.220;2023-06-22T08:23:54;6.43;;;4.45;;
17259;SDS011;8746;49.230;9.220;2023-06-22T08:26:19;7.82;;;4.80;;
17259;SDS011;8746;49.230;9.220;2023-06-22T08:28:45;7.88;;;4.43;;
17259;SDS011;8746;49.230;9.220;2023-06-22T08:31:10;8.10;;;4.50;;
17259;SDS011;8746;49.230;9.220;2023-06-22T08:33:37;4.80;;;4.30;;
17259;SDS011;8746;49.230;9.220;2023-06-22T08:36:02;4.40;;;3.90;;
17259;SDS011;8746;49.230;9.220;2023-06-22T08:38:31;6.60;;;4.80;;
17259;SDS011;8746;49.230;9.220;2023-06-22T08:40:56;6.30;;;3.90;;
17259;SDS011;8746;49.230;9.220;2023-06-22T08:43:21;4.95;;;4.45;;
17259;SDS011;8746;49.230;9.220;2023-06-22T08:45:47;6.50;;;4.40;;
17259;SDS011;8746;49.230;9.220;2023-06-22T08:48:12;4.15;;;3.47;;
17259;SDS011;8746;49.230;9.220;2023-06-22T08:50:37;4.45;;;4.05;;
17259;SDS011;8746;49.230;9.220;2023-06-22T08:53:05;6.25;;;4.22;;
17259;SDS011;8746;49.230;9.220;2023-06-22T08:55:31;5.50;;;4.00;;
17259;SDS011;8746;49.230;9.220;2023-06-22T08:57:57;4.30;;;3.60;;
17259;SDS011;8746;49.230;9.220;2023-06-22T09:00:22;4.85;;;3.70;;
17259;SDS011;8746;49.230;9.220;2023-06-22T09:02:47;6.57;;;4.40;;
17259;SDS011;8746;49.230;9.220;2023-06-22T09:05:13;5.45;;;4.35;;
17259;SDS011;8746;49.230;9.220;2023-06-22T09:07:39;4.28;;;3.85;;
17259;SDS011;8746;49.230;9.220;2023-06-22T09:10:05;6.20;;;3.97;;
17259;SDS011;8746;49.230;9.220;2023-06-22T09:12:32;4.85;;;3.90;;
17259;SDS011;8746;49.230;9.220;2023-06-22T09:15:00;4.85;;;3.60;;
17259;SDS011;8746;49.230;9.220;2023-06-22T09:17:27;4.53;;;4.13;;
17259;SDS011;8746;49.230;9.220;2023-06-22T09:19:52;6.13;;;4.57;;
17259;SDS011;8746;49.230;9.220;2023-06-22T09:22:18;6.05;;;4.25;;
17259;SDS011;8746;49.230;9.220;2023-06-22T09:24:43;5.00;;;4.22;;
17259;SDS011;8746;49.230;9.220;2023-06-22T09:27:08;7.32;;;3.95;;
17259;SDS011;8746;49.230;9.220;2023-06-22T09:29:34;4.88;;;3.72;;
17259;SDS011;8746;49.230;9.220;2023-06-22T09:31:59;5.18;;;3.97;;
17259;SDS011;8746;49.230;9.220;2023-06-22T09:34:25;4.20;;;3.80;;
17259;SDS011;8746;49.230;9.220;2023-06-22T09:36:51;5.40;;;4.00;;
17259;SDS011;8746;49.230;9.220;2023-06-22T09:39:17;5.95;;;3.83;;
17259;SDS011;8746;49.230;9.220;2023-06-22T09:41:43;5.47;;;4.22;;
17259;SDS011;8746;49.230;9.220;2023-06-22T09:44:08;6.78;;;4.03;;
17259;SDS011;8746;49.230;9.220;2023-06-22T09:46:34;5.72;;;4.10;;
17259;SDS011;8746;49.230;9.220;2023-06-22T09:48:59;7.63;;;4.50;;
17259;SDS011;8746;49.230;9.220;2023-06-22T09:51:24;6.13;;;4.30;;
17259;SDS011;8746;49.230;9.220;2023-06-22T09:53:50;4.35;;;4.00;;
17259;SDS011;8746;49.230;9.220;2023-06-22T09:56:16;4.90;;;4.30;;
17259;SDS011;8746;49.230;9.220;2023-06-22T09:58:42;4.55;;;3.80;;
17259;SDS011;8746;49.230;9.220;2023-06-22T10:01:08;4.80;;;4.10;;
17259;SDS011;8746;49.230;9.220;2023-06-22T10:03:33;5.70;;;4.28;;
17259;SDS011;8746;49.230;9.220;2023-06-22T10:05:59;4.72;;;3.90;;
17259;SDS011;8746;49.230;9.220;2023-06-22T10:08:24;6.45;;;3.85;;
17259;SDS011;8746;49.230;9.220;2023-06-22T10:10:49;4.72;;;3.83;;
17259;SDS011;8746;49.230;9.220;2023-06-22T10:13:15;7.57;;;4.45;;
17259;SDS011;8746;49.230;9.220;2023-06-22T10:15:41;6.35;;;4.65;;
17259;SDS011;8746;49.230;9.220;2023-06-22T10:18:07;9.10;;;4.40;;
17259;SDS011;8746;49.230;9.220;2023-06-22T10:20:32;6.60;;;3.97;;
17259;SDS011;8746;49.230;9.220;2023-06-22T10:22:58;6.38;;;3.90;;
17259;SDS011;8746;49.230;9.220;2023-06-22T10:25:24;5.45;;;4.20;;
17259;SDS011;8746;49.230;9.220;2023-06-22T10:27:49;6.78;;;4.50;;
17259;SDS011;8746;49.230;9.220;2023-06-22T10:30:15;4.70;;;4.30;;
17259;SDS011;8746;49.230;9.220;2023-06-22T10:32:41;5.65;;;4.28;;
17259;SDS011;8746;49.230;9.220;2023-06-22T10:35:10;5.13;;;4.60;;
17259;SDS011;8746;49.230;9.220;2023-06-22T10:37:38;7.97;;;4.13;;
17259;SDS011;8746;49.230;9.220;2023-06-22T10:40:03;5.18;;;4.22;;
17259;SDS011;8746;49.230;9.220;2023-06-22T10:42:30;5.90;;;3.92;;
17259;SDS011;8746;49.230;9.220;2023-06-22T10:44:55;6.60;;;4.03;;
17259;SDS011;8746;49.230;9.220;2023-06-22T10:47:25;5.50;;;4.20;;
17259;SDS011;8746;49.230;9.220;2023-06-22T10:49:50;7.40;;;4.13;;
17259;SDS011;8746;49.230;9.220;2023-06-22T10:52:15;7.18;;;4.32;;
17259;SDS011;8746;49.230;9.220;2023-06-22T10:54:41;6.30;;;4.32;;
17259;SDS011;8746;49.230;9.220;2023-06-22T10:57:06;5.97;;;3.88;;
17259;SDS011;8746;49.230;9.220;2023-06-22T10:59:32;6.03;;;4.15;;
17259;SDS011;8746;49.230;9.220;2023-06-22T11:01:57;7.28;;;4.20;;
17259;SDS011;8746;49.230;9.220;2023-06-22T11:04:23;5.60;;;4.15;;
17259;SDS011;8746;49.230;9.220;2023-06-22T11:06:49;5.38;;;4.28;;
17259;SDS011;8746;49.230;9.220;2023-06-22T11:09:15;4.57;;;4.00;;
17259;SDS011;8746;49.230;9.220;2023-06-22T11:11:45;5.68;;;4.40;;
17259;SDS011;8746;49.230;9.220;2023-06-22T11:14:11;6.15;;;4.22;;
17259;SDS011;8746;49.230;9.220;2023-06-22T11:16:36;5.55;;;4.03;;
17259;SDS011;8746;49.230;9.220;2023-06-22T11:19:01;8.20;;;4.15;;
17259;SDS011;8746;49.230;9.220;2023-06-22T11:21:28;5.28;;;4.20;;
17259;SDS011;8746;49.230;9.220;2023-06-22T11:23:53;7.03;;;4.65;;
17259;SDS011;8746;49.230;9.220;2023-06-22T11:26:18;5.03;;;4.10;;
17259;SDS011;8746;49.230;9.220;2023-06-22T11:28:46;8.07;;;4.53;;
17259;SDS011;8746;49.230;9.220;2023-06-22T11:31:12;6.57;;;4.38;;
17259;SDS011;8746;49.230;9.220;2023-06-22T11:33:37;5.75;;;4.00;;
17259;SDS011;8746;49.230;9.220;2023-06-22T11:36:03;6.13;;;3.95;;
17259;SDS011;8746;49.230;9.220;2023-06-22T11:38:28;8.23;;;4.57;;
17259;SDS011;8746;49.230;9.220;2023-06-22T11:40:54;7.30;;;4.05;;
17259;SDS011;8746;49.230;9.220;2023-06-22T11:43:19;6.22;;;4.30;;
17259;SDS011;8746;49.230;9.220;2023-06-22T11:45:44;5.60;;;4.35;;
17259;SDS011;8746;49.230;9.220;2023-06-22T11:48:10;5.00;;;4.30;;
17259;SDS011;8746;49.230;9.220;2023-06-22T11:50:35;5.85;;;4.25;;
17259;SDS011;8746;49.230;9.220;2023-06-22T11:53:02;6.00;;;4.20;;
17259;SDS011;8746;49.230;9.220;2023-06-22T11:55:28;7.65;;;4.03;;
17259;SDS011;8746;49.230;9.220;2023-06-22T11:57:57;6.05;;;4.10;;
17259;SDS011;8746;49.230;9.220;2023-06-22T12:00:25;7.78;;;4.57;;
17259;SDS011;8746;49.230;9.220;2023-06-22T12:02:51;9.10;;;4.00;;
17259;SDS011;8746;49.230;9.220;2023-06-22T12:05:18;11.80;;;4.93;;
17259;SDS011;8746;49.230;9.220;2023-06-22T12:07:45;6.35;;;4.40;;
17259;SDS011;8746;49.230;9.220;2023-06-22T12:10:11;8.40;;;4.22;;
17259;SDS011;8746;49.230;9.220;2023-06-22T12:12:36;5.55;;;4.50;;
17259;SDS011;8746;49.230;9.220;2023-06-22T12:15:01;6.45;;;4.32;;
17259;SDS011;8746;49.230;9.220;2023-06-22T12:17:28;8.75;;;4.38;;
17259;SDS011;8746;49.230;9.220;2023-06-22T12:19:54;6.78;;;4.35;;
17259;SDS011;8746;49.230;9.220;2023-06-22T12:22:20;8.90;;;4.25;;
17259;SDS011;8746;49.230;9.220;2023-06-22T12:24:45;5.95;;;4.00;;
17259;SDS011;8746;49.230;9.220;2023-06-22T12:27:10;9.18;;;4.50;;
17259;SDS011;8746;49.230;9.220;2023-06-22T12:29:36;8.23;;;4.40;;
17259;SDS011;8746;49.230;9.220;2023-06-22T12:32:01;6.45;;;4.75;;
17259;SDS011;8746;49.230;9.220;2023-06-22T12:34:26;8.27;;;4.60;;
17259;SDS011;8746;49.230;9.220;2023-06-22T12:36:52;4.95;;;4.47;;
17259;SDS011;8746;49.230;9.220;2023-06-22T12:39:19;7.43;;;4.50;;
17259;SDS011;8746;49.230;9.220;2023-06-22T12:41:45;6.60;;;4.60;;
17259;SDS011;8746;49.230;9.220;2023-06-22T12:44:10;6.45;;;4.25;;
17259;SDS011;8746;49.230;9.220;2023-06-22T12:46:35;10.80;;;4.85;;
17259;SDS011;8746;49.230;9.220;2023-06-22T12:49:03;9.32;;;5.07;;
17259;SDS011;8746;49.230;9.220;2023-06-22T12:51:29;7.63;;;4.75;;
17259;SDS011;8746;49.230;9.220;2023-06-22T12:53:54;4.90;;;4.30;;
17259;SDS011;8746;49.230;9.220;2023-06-22T12:56:20;10.02;;;4.50;;
17259;SDS011;8746;49.230;9.220;2023-06-22T12:58:45;10.82;;;4.57;;
17259;SDS011;8746;49.230;9.220;2023-06-22T13:01:10;7.07;;;4.70;;
17259;SDS011;8746;49.230;9.220;2023-06-22T13:03:36;6.32;;;4.40;;
17259;SDS011;8746;49.230;9.220;2023-06-22T13:06:01;8.98;;;4.68;;
17259;SDS011;8746;49.230;9.220;2023-06-22T13:08:28;6.70;;;4.30;;
17259;SDS011;8746;49.230;9.220;2023-06-22T13:10:54;5.32;;;4.47;;
17259;SDS011;8746;49.230;9.220;2023-06-22T13:13:21;7.38;;;4.88;;
17259;SDS011;8746;49.230;9.220;2023-06-22T13:15:49;8.55;;;5.15;;
17259;SDS011;8746;49.230;9.220;2023-06-22T13:18:15;7.53;;;4.82;;
17259;SDS011;8746;49.230;9.220;2023-06-22T13:20:40;6.68;;;4.32;;
17259;SDS011;8746;49.230;9.220;2023-06-22T13:23:05;5.28;;;4.47;;
17259;SDS011;8746;49.230;9.220;2023-06-22T13:25:30;6.50;;;4.65;;
17259;SDS011;8746;49.230;9.220;2023-06-22T13:27:56;8.75;;;4.80;;
17259;SDS011;8746;49.230;9.220;2023-06-22T13:30:21;7.53;;;4.43;;
17259;SDS011;8746;49.230;9.220;2023-06-22T13:32:46;9.40;;;4.60;;
17259;SDS011;8746;49.230;9.220;2023-06-22T13:35:12;6.45;;;4.90;;
17259;SDS011;8746;49.230;9.220;2023-06-22T13:37:37;8.40;;;4.90;;
17259;SDS011;8746;49.230;9.220;2023-06-22T13:40:04;6.05;;;4.50;;
17259;SDS011;8746;49.230;9.220;2023-06-22T13:42:31;7.18;;;4.32;;
17259;SDS011;8746;49.230;9.220;2023-06-22T13:44:57;4.68;;;4.03;;
17259;SDS011;8746;49.230;9.220;2023-06-22T13:47:22;5.15;;;4.50;;
17259;SDS011;8746;49.230;9.220;2023-06-22T13:49:47;6.65;;;4.63;;
17259;SDS011;8746;49.230;9.220;2023-06-22T13:52:13;9.18;;;4.72;;
17259;SDS011;8746;49.230;9.220;2023-06-22T13:54:38;8.90;;;5.00;;
17259;SDS011;8746;49.230;9.220;2023-06-22T13:57:04;9.00;;;4.55;;
17259;SDS011;8746;49.230;9.220;2023-06-22T13:59:29;6.82;;;5.05;;
17259;SDS011;8746;49.230;9.220;2023-06-22T14:01:55;8.70;;;4.82;;
17259;SDS011;8746;49.230;9.220;2023-06-22T14:04:22;7.70;;;4.40;;
17259;SDS011;8746;49.230;9.220;2023-06-22T14:06:48;7.80;;;4.43;;
17259;SDS011;8746;49.230;9.220;2023-06-22T14:09:13;5.28;;;4.57;;
17259;SDS011;8746;49.230;9.220;2023-06-22T14:11:39;8.95;;;4.90;;
17259;SDS011;8746;49.230;9.220;2023-06-22T14:14:04;6.65;;;4.50;;
17259;SDS011;8746;49.230;9.220;2023-06-22T14:16:29;7.97;;;4.57;;
17259;SDS011;8746;49.230;9.220;2023-06-22T14:18:54;8.40;;;4.55;;
17259;SDS011;8746;49.230;9.220;2023-06-22T14:21:20;5.43;;;4.53;;
17259;SDS011;8746;49.230;9.220;2023-06-22T14:23:45;10.15;;;4.53;;
17259;SDS011;8746;49.230;9.220;2023-06-22T14:26:14;10.35;;;4.72;;
17259;SDS011;8746;49.230;9.220;2023-06-22T14:28:40;8.80;;;4.63;;
17259;SDS011;8746;49.230;9.220;2023-06-22T14:31:05;7.80;;;4.88;;
17259;SDS011;8746;49.230;9.220;2023-06-22T14:33:30;7.80;;;4.47;;
17259;SDS011;8746;49.230;9.220;2023-06-22T14:35:56;6.97;;;4.80;;
17259;SDS011;8746;49.230;9.220;2023-06-22T14:38:21;7.30;;;4.43;;
17259;SDS011;8746;49.230;9.220;2023-06-22T14:40:46;6.97;;;4.55;;
17259;SDS011;8746;49.230;9.220;2023-06-22T14:43:12;7.40;;;4.65;;
17259;SDS011;8746;49.230;9.220;2023-06-22T14:45:37;7.03;;;4.85;;
17259;SDS011;8746;49.230;9.220;2023-06-22T14:48:02;5.32;;;4.07;;
17259;SDS011;8746;49.230;9.220;2023-06-22T14:50:27;6.50;;;4.53;;
17259;SDS011;8746;49.230;9.220;2023-06-22T14:52:53;7.00;;;4.53;;
17259;SDS011;8746;49.230;9.220;2023-06-22T14:55:19;9.10;;;4.50;;
17259;SDS011;8746;49.230;9.220;2023-06-22T14:57:44;7.50;;;4.53;;
17259;SDS011;8746;49.230;9.220;2023-06-22T15:00:09;8.60;;;4.60;;